• Join FlightAware (Why Join?)
  • Login
  • US Flag 
11:59PM EDT


 

Airport Tracker/Info


-or-


 

Live Flight TrackerFlight Track Log ✈ DAL488 ✈ 08-Jul-2013 ✈ MDSD / SDQ - KJFK

Flight Track Log - Related Links

Times and Time Zones

All times are in EDT time to prevent confusion due to time zone crossing. See the DAL488 flight status page for this flight to view local times or setup timezone preferences in your user account.

Time Position Orientation Groundspeed Altitude Reporting Facility
EDT Latitude Longitude Course Direction KTS MPH feet Rate Location/Type
06:50PM 19.2519 -69.8800 352° North 459 528 17,700  Level Miami Center
06:51PM 19.3711 -69.9356 336° Northwest 464 534 19,700 2,100 Climbing Miami Center
06:52PM 19.4833 -69.9828 338° Northwest 454 522 22,000 1,800 Climbing Miami Center
06:53PM 19.5958 -70.0278 339° North 442 509 23,300 1,320 Climbing Miami Center
06:54PM 19.7103 -70.0772 338° Northwest 437 503 24,700 1,200 Climbing Miami Center
06:55PM 19.8247 -70.1244 339° North 437 503 25,700 900 Climbing Miami Center
06:56PM 20.4358 -69.9764 352° North  Level Estimated
06:56PM 19.9456 -70.1736 339° North 453 521 26,600  Level Miami Center
06:57PM 20.0642 -70.2231 339° North 458 527 28,400 1,680 Climbing Miami Center
06:58PM 20.1747 -70.2753 336° Northwest 453 521 30,000 1,200 Climbing Miami Center
06:59PM 20.2894 -70.3250 338° Northwest 443 510 30,800 480 Climbing Miami Center
07:00PM 20.4169 -70.3344 356° North 443 510 31,000 240 Climbing Miami Center
07:01PM 20.5489 -70.3017 13° North 459 528 31,300 600 Climbing Miami Center
07:02PM 20.6828 -70.2664 14° North 472 543 32,200 840 Climbing Miami Center
07:03PM 20.8167 -70.2311 14° North 485 558 33,000 900 Climbing Miami Center
07:04PM 20.9528 -70.1936 14° North 491 565 34,000 480 Climbing Miami Center
07:05PM 21.0867 -70.1603 13° North 491 565 34,000  Level Miami Center
07:06PM 21.2186 -70.1250 14° North 485 558 34,000  Level Miami Center
07:07PM 21.3461 -70.0897 14° North 485 558 34,000  Level Miami Center
07:08PM 21.4803 -70.0561 13° North 485 558 34,000  Level Miami Center
07:09PM 21.6100 -70.0228 13° North 485 558 34,000  Level Miami Center
07:10PM 21.7397 -69.9872 14° North 485 558 34,000  Level Miami Center
07:11PM 21.8656 -69.9539 14° North 480 552 34,100 480 Climbing Miami Center
07:12PM 21.9972 -69.9178 14° North 480 552 35,000 420 Climbing Miami Center
07:13PM 22.1228 -69.8844 14° North 480 552 35,000  Level Miami Center
07:14PM 22.2528 -69.8531 13° North 475 547 35,000  Level Miami Center
07:15PM 22.3825 -69.8192 14° North 470 541 35,000  Level Miami Center
07:16PM 22.5058 -69.7811 16° North 470 541 35,000  Level Miami Center
07:17PM 22.6358 -69.7469 14° North 469 540 35,000  Level Miami Center
07:18PM 22.7636 -69.7153 13° North 469 540 35,000  Level Miami Center
07:19PM 22.8911 -69.6767 16° North 469 540 35,000  Level Miami Center
07:20PM 23.0208 -69.6447 13° North 469 540 35,000  Level Miami Center
07:21PM 23.1506 -69.6103 14° North 474 545 35,000  Level Miami Center
07:22PM 23.2781 -69.5739 15° North 469 540 35,000  Level Miami Center
07:23PM 23.4036 -69.5394 14° North 469 540 35,000  Level Miami Center
07:24PM 23.5314 -69.5072 13° North 464 534 35,000  Level Miami Center
07:25PM 23.6567 -69.4706 15° North 473 544 35,000  Level Miami Center
07:26PM 23.7844 -69.4361 14° North 467 537 35,000  Level Miami Center
07:27PM 23.9119 -69.4011 14° North 467 537 35,000  Level Miami Center
07:28PM 24.0417 -69.3686 13° North 467 537 35,100 480 Climbing Miami Center
07:29PM 24.1689 -69.3292 16° North 467 537 36,000 420 Climbing Miami Center
07:30PM 24.3089 -69.2911 14° North 472 543 36,000  Level Miami Center
07:31PM 24.4219 -69.2592 14° North 466 536 36,000  Level Miami Center
07:32PM 24.5494 -69.2261 13° North 466 536 36,000  Level Miami Center
07:33PM 24.6728 -69.1911 14° North 466 536 36,000  Level Miami Center
07:34PM 24.7889 -69.1383 22° Northeast 466 536 36,000  Level Miami Center
07:35PM 24.9239 -69.1253 North 468 539 36,000  Level Miami Center
07:36PM 25.0525 -69.1125 North 463 533 36,000  Level Miami Center
07:37PM 25.0000 -69.1000 349° North 449 517 36,000  Level New York Oceanic (ODAPS)
07:44PM 26.0054 -69.3086 349° North 449 517 36,000  Level FlightAware Transoceanic
07:45PM 26.1310 -69.3349 349° North 449 517 36,000  Level FlightAware Transoceanic
07:46PM 26.2567 -69.3613 349° North 449 517 36,000  Level FlightAware Transoceanic
07:47PM 26.3823 -69.3877 349° North 449 517 36,000  Level FlightAware Transoceanic
07:48PM 26.5079 -69.4142 349° North 449 517 36,000  Level FlightAware Transoceanic
07:49PM 26.6336 -69.4408 349° North 449 517 36,000  Level FlightAware Transoceanic
07:50PM 26.7592 -69.4674 349° North 449 517 36,000  Level FlightAware Transoceanic
07:50PM 26.7167 -69.4500 349° North 478 550 36,000  Level New York Oceanic (ODAPS)
07:51PM 26.8848 -69.4941 349° North 449 517 36,000  Level FlightAware Transoceanic
07:52PM 27.0104 -69.5208 349° North 449 517 36,000  Level FlightAware Transoceanic
07:53PM 27.1360 -69.5476 349° North 449 517 36,000  Level FlightAware Transoceanic
07:54PM 27.2616 -69.5744 349° North 449 517 36,000  Level FlightAware Transoceanic
07:55PM 27.3872 -69.6013 349° North 449 517 36,000  Level FlightAware Transoceanic
07:56PM 27.5128 -69.6283 349° North 449 517 36,000  Level FlightAware Transoceanic
07:57PM 27.6380 -69.6489 349° North 478 550 36,000  Level FlightAware Transoceanic
07:58PM 27.7695 -69.6776 349° North 478 550 36,000  Level FlightAware Transoceanic
07:59PM 27.9011 -69.7064 349° North 478 550 36,000  Level FlightAware Transoceanic
08:00PM 28.0327 -69.7352 349° North 478 550 36,000  Level FlightAware Transoceanic
08:01PM 28.1643 -69.7641 349° North 478 550 36,000  Level FlightAware Transoceanic
08:02PM 28.2958 -69.7930 349° North 478 550 36,000  Level FlightAware Transoceanic
08:03PM 28.4274 -69.8221 349° North 478 550 36,000  Level FlightAware Transoceanic
08:04PM 28.5589 -69.8512 349° North 478 550 36,000  Level FlightAware Transoceanic
08:05PM 28.6905 -69.8804 349° North 478 550 36,000  Level FlightAware Transoceanic
08:06PM 28.8220 -69.9096 349° North 478 550 36,000  Level FlightAware Transoceanic
08:07PM 28.9536 -69.9390 349° North 478 550 36,000  Level FlightAware Transoceanic
08:08PM 29.0851 -69.9684 349° North 478 550 36,000  Level FlightAware Transoceanic
08:09PM 29.2166 -69.9978 349° North 478 550 36,000  Level FlightAware Transoceanic
08:10PM 29.3481 -70.0274 349° North 478 550 36,000  Level FlightAware Transoceanic
08:11PM 29.4796 -70.0570 349° North 478 550 36,000  Level FlightAware Transoceanic
08:12PM 29.6111 -70.0867 349° North 478 550 36,000  Level FlightAware Transoceanic
08:13PM 29.7426 -70.1165 349° North 478 550 36,000  Level FlightAware Transoceanic
08:14PM 29.8741 -70.1464 349° North 478 550 36,000  Level FlightAware Transoceanic
08:15PM 30.0056 -70.1764 349° North 478 550 36,000  Level FlightAware Transoceanic
08:16PM 30.1371 -70.2064 349° North 478 550 36,000  Level FlightAware Transoceanic
08:17PM 30.2685 -70.2365 349° North 478 550 36,000  Level FlightAware Transoceanic
08:18PM 30.4000 -70.2667 349° North 478 550 36,000  Level FlightAware Transoceanic
08:19PM 30.5280 -70.2958 349° North 478 550 36,000  Level FlightAware Transoceanic
08:19PM 30.4000 -70.2667 349° North 482 555 36,000  Level New York Oceanic (ODAPS)
08:20PM 30.6560 -70.3250 349° North 478 550 36,000  Level FlightAware Transoceanic
08:21PM 30.7839 -70.3543 349° North 478 550 36,000  Level FlightAware Transoceanic
08:22PM 30.9119 -70.3837 349° North 478 550 36,000  Level FlightAware Transoceanic
08:23PM 31.0398 -70.4131 349° North 478 550 36,000  Level FlightAware Transoceanic
08:24PM 31.1678 -70.4427 349° North 478 550 36,000  Level FlightAware Transoceanic
08:25PM 31.1822 -70.4460 349° North 482 555 36,000  Level FlightAware Transoceanic
08:26PM 31.3126 -70.4762 349° North 482 555 36,000  Level FlightAware Transoceanic
08:27PM 31.4429 -70.5065 349° North 482 555 36,000  Level FlightAware Transoceanic
08:28PM 31.5733 -70.5368 349° North 482 555 36,000  Level FlightAware Transoceanic
08:29PM 31.7036 -70.5673 349° North 482 555 36,000  Level FlightAware Transoceanic
08:30PM 31.8339 -70.5978 349° North 482 555 36,000  Level FlightAware Transoceanic
08:31PM 31.9642 -70.6284 349° North 482 555 36,000  Level FlightAware Transoceanic
08:32PM 32.0945 -70.6591 349° North 482 555 36,000  Level FlightAware Transoceanic
08:33PM 32.2248 -70.6899 349° North 482 555 36,000  Level FlightAware Transoceanic
08:34PM 32.3551 -70.7207 349° North 482 555 36,000  Level FlightAware Transoceanic
08:35PM 32.4854 -70.7517 349° North 482 555 36,000  Level FlightAware Transoceanic
08:36PM 32.6157 -70.7827 349° North 482 555 36,000  Level FlightAware Transoceanic
08:37PM 32.7459 -70.8139 349° North 482 555 36,000  Level FlightAware Transoceanic
08:38PM 32.8762 -70.8451 349° North 482 555 36,000  Level FlightAware Transoceanic
08:39PM 33.0065 -70.8764 349° North 482 555 36,000  Level FlightAware Transoceanic
08:40PM 33.1367 -70.9078 349° North 482 555 36,000  Level FlightAware Transoceanic
08:41PM 33.2669 -70.9393 349° North 482 555 36,000  Level FlightAware Transoceanic
08:42PM 33.3972 -70.9709 349° North 482 555 36,000  Level FlightAware Transoceanic
08:43PM 33.5274 -71.0026 349° North 482 555 36,000  Level FlightAware Transoceanic
08:44PM 33.6576 -71.0344 348° North 482 555 36,000  Level FlightAware Transoceanic
08:45PM 33.7878 -71.0663 348° North 482 555 36,000  Level FlightAware Transoceanic
08:45PM 33.6833 -71.0333 348° North 477 549 36,000  Level New York Oceanic (ODAPS)
08:46PM 33.9180 -71.0983 348° North 482 555 36,000  Level FlightAware Transoceanic
08:47PM 34.0482 -71.1304 348° North 482 555 36,000  Level FlightAware Transoceanic
08:48PM 34.1784 -71.1626 348° North 482 555 36,000  Level FlightAware Transoceanic
08:49PM 34.3086 -71.1948 348° North 482 555 36,000  Level FlightAware Transoceanic
08:50PM 34.4387 -71.2272 348° North 482 555 36,000  Level FlightAware Transoceanic
08:51PM 34.5689 -71.2597 348° North 482 555 36,000  Level FlightAware Transoceanic
08:52PM 34.7174 -71.2916 348° North 477 549 36,000  Level FlightAware Transoceanic
08:53PM 34.8466 -71.3243 348° North 477 549 36,000  Level FlightAware Transoceanic
08:54PM 34.9758 -71.3571 348° North 477 549 36,000  Level FlightAware Transoceanic
08:55PM 35.1050 -71.3901 348° North 477 549 36,000  Level FlightAware Transoceanic
08:56PM 35.2342 -71.4231 348° North 477 549 36,000  Level FlightAware Transoceanic
08:57PM 35.3634 -71.4562 348° North 477 549 36,000  Level FlightAware Transoceanic
08:58PM 35.4926 -71.4895 348° North 477 549 36,000  Level FlightAware Transoceanic
08:59PM 35.6217 -71.5229 348° North 477 549 36,000  Level FlightAware Transoceanic
09:00PM 35.7509 -71.5563 348° North 477 549 36,000  Level FlightAware Transoceanic
09:00PM 35.6333 -71.5333 348° North 471 542 36,000  Level New York Oceanic (ODAPS)
09:01PM 35.8800 -71.5899 348° North 477 549 36,000  Level FlightAware Transoceanic
09:02PM 36.0092 -71.6236 348° North 477 549 36,000  Level FlightAware Transoceanic
09:03PM 36.1383 -71.6574 348° North 477 549 36,000  Level FlightAware Transoceanic
09:03PM 36.1922 -71.6667 348° North 456 525 36,000  Level New York Center
09:04PM 36.2674 -71.6913 348° North 477 549 36,000  Level FlightAware Transoceanic
09:04PM 36.3192 -71.6992 348° North 448 516 36,000  Level New York Center
09:05PM 36.3965 -71.7253 348° North 477 549 36,000  Level FlightAware Transoceanic
09:05PM 36.4461 -71.7317 348° North 458 527 36,000  Level New York Center
09:06PM 36.5310 -71.7644 348° North 471 542 36,000  Level FlightAware Transoceanic
09:06PM 36.5731 -71.7672 347° North 465 535 36,000  Level New York Center
09:07PM 36.6592 -71.7978 348° North 471 542 36,000 -120 Level FlightAware Transoceanic
09:07PM 36.7000 -71.8025 347° North 465 535 35,900  Descending New York Center
09:08PM 36.8206 -71.8561 340° North 465 535 36,000  Climbing New York Center
09:09PM 36.9389 -71.9228 336° Northwest 457 526 36,000  Level New York Center
09:10PM 37.0528 -71.9922 334° Northwest 457 526 36,000  Level New York Center
09:11PM 37.1669 -72.0619 334° Northwest 457 526 36,000  Level New York Center
09:12PM 37.2869 -72.1372 333° Northwest 464 534 36,000  Level New York Center
09:13PM 37.4050 -72.2075 335° Northwest 464 534 36,000 -60 Level New York Center
09:14PM 37.5189 -72.2803 333° Northwest 464 534 35,900 -60 Descending New York Center
09:15PM 37.6139 -72.3375 334° Northwest 458 527 35,900  Level New York Center
09:16PM 37.7253 -72.4264 328° Northwest 446 513 35,900  Level New York Center
09:17PM 37.8475 -72.4897 338° Northwest 459 528 35,900  Level New York Center
09:18PM 37.9697 -72.5506 339° North 464 534 36,000  Climbing New York Center
09:19PM 38.0853 -72.6325 331° Northwest 464 534 36,000  Level New York Center
09:20PM 38.2028 -72.7069 334° Northwest 464 534 36,000 -480 Level New York Center
09:21PM 38.3225 -72.7817 334° Northwest 464 534 35,100 -900 Descending New York Center
09:22PM 38.4422 -72.8567 334° Northwest 469 540 34,200 -960 Descending New York Center
09:23PM 38.5597 -72.9319 333° Northwest 469 540 33,200 -1,800 Descending New York Center
09:24PM 38.6936 -73.0158 334° Northwest 469 540 30,700 -2,760 Descending New York Center
09:25PM 38.8050 -73.0831 335° Northwest 477 549 27,600 -2,880 Descending New York Center
09:26PM 38.9264 -73.1564 335° Northwest 477 549 25,000 -2,640 Descending New York Center
09:27PM 39.0417 -73.2325 333° Northwest 477 549 22,500 -2,580 Descending New York Center
09:28PM 39.1547 -73.3033 334° Northwest 465 535 20,000 -2,400 Descending New York Center
09:29PM 39.2636 -73.3744 333° Northwest 452 520 17,700 -2,520 Descending New York Center
09:30PM 39.3706 -73.4428 334° Northwest 435 501 15,000 -2,280 Descending New York Center
09:31PM 39.4711 -73.5086 333° Northwest 420 483 13,200 -1,680 Descending New York Center
09:32PM 39.5636 -73.5686 333° Northwest 395 455 11,700 -1,500 Descending New York Center
09:33PM 39.6539 -73.6261 334° Northwest 372 428 10,300 -960 Descending New York Center
09:34PM 39.7339 -73.6781 333° Northwest 344 396 9,800 -720 Descending New York Center
09:35PM 39.8058 -73.7269 332° Northwest 311 358 8,900 -420 Descending New York Center
09:36PM 39.8794 -73.7733 334° Northwest 294 338 9,000  Climbing New York Center
09:37PM 39.9514 -73.8200 334° Northwest 289 333 9,000  Level New York Center
09:38PM 40.0208 -73.8717 330° Northwest 278 320 9,000  Level New York Center
09:39PM 40.1078 -73.8892 351° North 278 320 9,000 -480 Level New York Center
09:40PM 40.1872 -73.8792 North 278 320 8,100 -1,020 Descending New York Center
09:41PM 40.1903 -73.7706 88° East 215 247 7,100 -1,080 Descending New York Center
09:42PM 40.2167 -73.7000 64° Northeast 300 345 6,200 -1,080 Descending New York TRACON
09:43PM 40.2833 -73.6500 30° Northeast 285 328 5,200 -960 Descending New York TRACON
09:44PM 40.3667 -73.6000 25° Northeast 289 333 4,300 -600 Descending New York TRACON
09:45PM 40.4167 -73.5500 37° Northeast 268 308 4,000 -180 Descending New York TRACON
09:46PM 40.4667 -73.5000 37° Northeast 239 275 4,000  Level New York TRACON
09:47PM 40.5167 -73.4333 45° Northeast 238 274 4,000  Level New York TRACON
09:48PM 40.5833 -73.4000 21° North 234 269 4,000  Level New York TRACON
09:49PM 40.6333 -73.3500 37° Northeast 234 269 4,000  Level New York TRACON
09:50PM 40.7000 -73.3333 11° North 233 268 4,000 -540 Level New York TRACON
09:51PM 40.7500 -73.3333 360° North 218 251 3,000 -540 Descending New York TRACON
09:52PM 40.8000 -73.3667 333° Northwest 185 213 3,000 -300 Level New York TRACON
09:53PM 40.8333 -73.4167 311° West 180 207 2,500 -540 Descending New York TRACON
09:54PM 40.8333 -73.4833 270° West 174 200 2,000 -300 Descending New York TRACON
09:55PM 40.8333 -73.5333 270° West 174 200 2,000  Level New York TRACON
09:56PM 40.8000 -73.6000 237° Southwest 177 204 2,000  Level New York TRACON
09:57PM 40.7833 -73.6500 246° West 175 201 2,000  Level New York TRACON